La Banda, Argentina
Current Conditions -  °F | °C
As of 5:00 AM on Wednesday 22 Oct 2014 (Local Time) from SANT Reporting Station
Clear Clear  
Wind Chill: 21°   Ceiling: Unl
Heat Index: 21°   Visibility: 5mi
Dew Point: 15°   Wind: 5mph
Humidity: 68%   Direction: 360°N
Pressure: 29.88"   Gusts: NA
Location:  27.73°S, 64.25°W
Report Text: SANT 220800Z 36004KT 8000 NSC 21/15 Q1012
Loading
Personal Weather Stations






























Interactive Weather Map
Tropical Storm Tracking
New forecast layout! Learn more

10-Day Weather Forecast

Advertisements
Track Severe Weather on mobile